<?xml version="1.0" encoding="UTF-8" standalone="no" ?>
<gpx xmlns="http://www.topografix.com/GPX/1/1" xmlns:xsi="http://www.w3.org/2001/XMLSchema-instance" xsi:schemaLocation="http://www.topografix.com/GPX/1/1 http://www.topografix.com/GPX/1/1/gpx.xsd" version="1.1" creator="VisuGPX - https://www.visugpx.com">
  <metadata>
    <name>Moulet-Marcenat</name>
    <desc><![CDATA[Pour VVN]]></desc>
  </metadata>
  <trk>
    <name><![CDATA[Moulet-Marcenat_1]]></name>
    <trkseg>
      <trkpt lat="45.87838" lon="2.9928">
        <ele>760</ele>
        <time>2019-09-29T19:29:14Z</time>
      </trkpt>
      <trkpt lat="45.87753" lon="2.9914">
        <ele>760</ele>
        <time>2019-09-29T19:29:44Z</time>
      </trkpt>
      <trkpt lat="45.87696" lon="2.99028">
        <ele>761</ele>
        <time>2019-09-29T19:30:07Z</time>
      </trkpt>
      <trkpt lat="45.87648" lon="2.98931">
        <ele>761</ele>
        <time>2019-09-29T19:30:26Z</time>
      </trkpt>
      <trkpt lat="45.87607" lon="2.98861">
        <ele>762</ele>
        <time>2019-09-29T19:30:41Z</time>
      </trkpt>
      <trkpt lat="45.8755" lon="2.98764">
        <ele>767</ele>
        <time>2019-09-29T19:31:02Z</time>
      </trkpt>
      <trkpt lat="45.87525" lon="2.98728">
        <ele>769</ele>
        <time>2019-09-29T19:31:10Z</time>
      </trkpt>
      <trkpt lat="45.8758" lon="2.98552">
        <ele>771</ele>
        <time>2019-09-29T19:31:41Z</time>
      </trkpt>
      <trkpt lat="45.87631" lon="2.98367">
        <ele>787</ele>
        <time>2019-09-29T19:32:14Z</time>
      </trkpt>
      <trkpt lat="45.87673" lon="2.98172">
        <ele>796</ele>
        <time>2019-09-29T19:32:47Z</time>
      </trkpt>
      <trkpt lat="45.87677" lon="2.98087">
        <ele>795</ele>
        <time>2019-09-29T19:33:01Z</time>
      </trkpt>
      <trkpt lat="45.87743" lon="2.98087">
        <ele>797</ele>
        <time>2019-09-29T19:33:16Z</time>
      </trkpt>
      <trkpt lat="45.87817" lon="2.98109">
        <ele>807</ele>
        <time>2019-09-29T19:33:34Z</time>
      </trkpt>
      <trkpt lat="45.87931" lon="2.98197">
        <ele>800</ele>
        <time>2019-09-29T19:34:04Z</time>
      </trkpt>
      <trkpt lat="45.88182" lon="2.98151">
        <ele>801</ele>
        <time>2019-09-29T19:35:03Z</time>
      </trkpt>
      <trkpt lat="45.88277" lon="2.98099">
        <ele>802</ele>
        <time>2019-09-29T19:35:27Z</time>
      </trkpt>
      <trkpt lat="45.8837" lon="2.98014">
        <ele>801</ele>
        <time>2019-09-29T19:35:52Z</time>
      </trkpt>
      <trkpt lat="45.88442" lon="2.97978">
        <ele>798</ele>
        <time>2019-09-29T19:36:10Z</time>
      </trkpt>
      <trkpt lat="45.88528" lon="2.97984">
        <ele>791</ele>
        <time>2019-09-29T19:36:30Z</time>
      </trkpt>
      <trkpt lat="45.88594" lon="2.98036">
        <ele>789</ele>
        <time>2019-09-29T19:36:48Z</time>
      </trkpt>
      <trkpt lat="45.88632" lon="2.98109">
        <ele>787</ele>
        <time>2019-09-29T19:37:03Z</time>
      </trkpt>
      <trkpt lat="45.88655" lon="2.98178">
        <ele>786</ele>
        <time>2019-09-29T19:37:15Z</time>
      </trkpt>
      <trkpt lat="45.88722" lon="2.98185">
        <ele>787</ele>
        <time>2019-09-29T19:37:31Z</time>
      </trkpt>
      <trkpt lat="45.88771" lon="2.98165">
        <ele>789</ele>
        <time>2019-09-29T19:37:43Z</time>
      </trkpt>
      <trkpt lat="45.88786" lon="2.98228">
        <ele>783</ele>
        <time>2019-09-29T19:37:54Z</time>
      </trkpt>
      <trkpt lat="45.88833" lon="2.98231">
        <ele>784</ele>
        <time>2019-09-29T19:38:05Z</time>
      </trkpt>
      <trkpt lat="45.88873" lon="2.98162">
        <ele>788</ele>
        <time>2019-09-29T19:38:19Z</time>
      </trkpt>
      <trkpt lat="45.88919" lon="2.98101">
        <ele>788</ele>
        <time>2019-09-29T19:38:34Z</time>
      </trkpt>
      <trkpt lat="45.8894" lon="2.97864">
        <ele>790</ele>
        <time>2019-09-29T19:39:13Z</time>
      </trkpt>
      <trkpt lat="45.88967" lon="2.97756">
        <ele>789</ele>
        <time>2019-09-29T19:39:31Z</time>
      </trkpt>
      <trkpt lat="45.88968" lon="2.97647">
        <ele>789</ele>
        <time>2019-09-29T19:39:49Z</time>
      </trkpt>
      <trkpt lat="45.8904" lon="2.9743">
        <ele>790</ele>
        <time>2019-09-29T19:40:28Z</time>
      </trkpt>
      <trkpt lat="45.89189" lon="2.97251">
        <ele>800</ele>
        <time>2019-09-29T19:41:13Z</time>
      </trkpt>
      <trkpt lat="45.89354" lon="2.97088">
        <ele>803</ele>
        <time>2019-09-29T19:42:00Z</time>
      </trkpt>
      <trkpt lat="45.89304" lon="2.9683">
        <ele>804</ele>
        <time>2019-09-29T19:42:44Z</time>
      </trkpt>
      <trkpt lat="45.89311" lon="2.96731">
        <ele>804</ele>
        <time>2019-09-29T19:43:00Z</time>
      </trkpt>
      <trkpt lat="45.89347" lon="2.96509">
        <ele>812</ele>
        <time>2019-09-29T19:43:37Z</time>
      </trkpt>
      <trkpt lat="45.89324" lon="2.96478">
        <ele>818</ele>
        <time>2019-09-29T19:43:44Z</time>
      </trkpt>
      <trkpt lat="45.89391" lon="2.96304">
        <ele>822</ele>
        <time>2019-09-29T19:44:17Z</time>
      </trkpt>
      <trkpt lat="45.89498" lon="2.95766">
        <ele>833</ele>
        <time>2019-09-29T19:45:48Z</time>
      </trkpt>
      <trkpt lat="45.89531" lon="2.95644">
        <ele>836</ele>
        <time>2019-09-29T19:46:09Z</time>
      </trkpt>
      <trkpt lat="45.89521" lon="2.95554">
        <ele>840</ele>
        <time>2019-09-29T19:46:24Z</time>
      </trkpt>
      <trkpt lat="45.89551" lon="2.95513">
        <ele>837</ele>
        <time>2019-09-29T19:46:33Z</time>
      </trkpt>
      <trkpt lat="45.89576" lon="2.95429">
        <ele>841</ele>
        <time>2019-09-29T19:46:48Z</time>
      </trkpt>
      <trkpt lat="45.89601" lon="2.95302">
        <ele>843</ele>
        <time>2019-09-29T19:47:10Z</time>
      </trkpt>
      <trkpt lat="45.89576" lon="2.95228">
        <ele>842</ele>
        <time>2019-09-29T19:47:23Z</time>
      </trkpt>
      <trkpt lat="45.89629" lon="2.95013">
        <ele>834</ele>
        <time>2019-09-29T19:48:00Z</time>
      </trkpt>
      <trkpt lat="45.89684" lon="2.94919">
        <ele>829</ele>
        <time>2019-09-29T19:48:20Z</time>
      </trkpt>
      <trkpt lat="45.89517" lon="2.94914">
        <ele>827</ele>
        <time>2019-09-29T19:48:59Z</time>
      </trkpt>
      <trkpt lat="45.89325" lon="2.94883">
        <ele>828</ele>
        <time>2019-09-29T19:49:44Z</time>
      </trkpt>
      <trkpt lat="45.89278" lon="2.94883">
        <ele>828</ele>
        <time>2019-09-29T19:49:55Z</time>
      </trkpt>
      <trkpt lat="45.89263" lon="2.9485">
        <ele>828</ele>
        <time>2019-09-29T19:50:02Z</time>
      </trkpt>
      <trkpt lat="45.89258" lon="2.94809">
        <ele>827</ele>
        <time>2019-09-29T19:50:08Z</time>
      </trkpt>
      <trkpt lat="45.89256" lon="2.94761">
        <ele>826</ele>
        <time>2019-09-29T19:50:16Z</time>
      </trkpt>
      <trkpt lat="45.89224" lon="2.94733">
        <ele>825</ele>
        <time>2019-09-29T19:50:25Z</time>
      </trkpt>
      <trkpt lat="45.89192" lon="2.94697">
        <ele>825</ele>
        <time>2019-09-29T19:50:34Z</time>
      </trkpt>
      <trkpt lat="45.89167" lon="2.94679">
        <ele>824</ele>
        <time>2019-09-29T19:50:41Z</time>
      </trkpt>
      <trkpt lat="45.89118" lon="2.94676">
        <ele>824</ele>
        <time>2019-09-29T19:50:52Z</time>
      </trkpt>
      <trkpt lat="45.89077" lon="2.94659">
        <ele>824</ele>
        <time>2019-09-29T19:51:02Z</time>
      </trkpt>
      <trkpt lat="45.88796" lon="2.94687">
        <ele>817</ele>
        <time>2019-09-29T19:52:08Z</time>
      </trkpt>
      <trkpt lat="45.88677" lon="2.94702">
        <ele>817</ele>
        <time>2019-09-29T19:52:36Z</time>
      </trkpt>
      <trkpt lat="45.88583" lon="2.94707">
        <ele>818</ele>
        <time>2019-09-29T19:52:58Z</time>
      </trkpt>
      <trkpt lat="45.88521" lon="2.94702">
        <ele>819</ele>
        <time>2019-09-29T19:53:13Z</time>
      </trkpt>
      <trkpt lat="45.88359" lon="2.9472">
        <ele>820</ele>
        <time>2019-09-29T19:53:50Z</time>
      </trkpt>
      <trkpt lat="45.88322" lon="2.94551">
        <ele>822</ele>
        <time>2019-09-29T19:54:19Z</time>
      </trkpt>
      <trkpt lat="45.88389" lon="2.94475">
        <ele>825</ele>
        <time>2019-09-29T19:54:39Z</time>
      </trkpt>
      <trkpt lat="45.88439" lon="2.94373">
        <ele>827</ele>
        <time>2019-09-29T19:54:59Z</time>
      </trkpt>
      <trkpt lat="45.8851" lon="2.94306">
        <ele>829</ele>
        <time>2019-09-29T19:55:19Z</time>
      </trkpt>
      <trkpt lat="45.88542" lon="2.9423">
        <ele>833</ele>
        <time>2019-09-29T19:55:34Z</time>
      </trkpt>
      <trkpt lat="45.88528" lon="2.94148">
        <ele>840</ele>
        <time>2019-09-29T19:55:47Z</time>
      </trkpt>
      <trkpt lat="45.88516" lon="2.94077">
        <ele>842</ele>
        <time>2019-09-29T19:55:59Z</time>
      </trkpt>
      <trkpt lat="45.88512" lon="2.94">
        <ele>844</ele>
        <time>2019-09-29T19:56:12Z</time>
      </trkpt>
      <trkpt lat="45.88524" lon="2.93962">
        <ele>848</ele>
        <time>2019-09-29T19:56:19Z</time>
      </trkpt>
      <trkpt lat="45.88603" lon="2.93942">
        <ele>848</ele>
        <time>2019-09-29T19:56:37Z</time>
      </trkpt>
      <trkpt lat="45.88659" lon="2.93834">
        <ele>854</ele>
        <time>2019-09-29T19:56:59Z</time>
      </trkpt>
      <trkpt lat="45.88736" lon="2.93727">
        <ele>853</ele>
        <time>2019-09-29T19:57:24Z</time>
      </trkpt>
      <trkpt lat="45.88706" lon="2.93582">
        <ele>868</ele>
        <time>2019-09-29T19:57:49Z</time>
      </trkpt>
      <trkpt lat="45.88674" lon="2.93469">
        <ele>878</ele>
        <time>2019-09-29T19:58:09Z</time>
      </trkpt>
      <trkpt lat="45.88661" lon="2.93401">
        <ele>879</ele>
        <time>2019-09-29T19:58:20Z</time>
      </trkpt>
      <trkpt lat="45.88611" lon="2.93298">
        <ele>880</ele>
        <time>2019-09-29T19:58:41Z</time>
      </trkpt>
      <trkpt lat="45.88588" lon="2.93232">
        <ele>875</ele>
        <time>2019-09-29T19:58:53Z</time>
      </trkpt>
      <trkpt lat="45.88562" lon="2.93209">
        <ele>876</ele>
        <time>2019-09-29T19:59:00Z</time>
      </trkpt>
      <trkpt lat="45.88524" lon="2.93059">
        <ele>878</ele>
        <time>2019-09-29T19:59:26Z</time>
      </trkpt>
      <trkpt lat="45.88478" lon="2.92954">
        <ele>877</ele>
        <time>2019-09-29T19:59:46Z</time>
      </trkpt>
      <trkpt lat="45.88484" lon="2.92847">
        <ele>871</ele>
        <time>2019-09-29T20:00:03Z</time>
      </trkpt>
      <trkpt lat="45.88478" lon="2.92722">
        <ele>872</ele>
        <time>2019-09-29T20:00:24Z</time>
      </trkpt>
      <trkpt lat="45.88476" lon="2.92655">
        <ele>874</ele>
        <time>2019-09-29T20:00:35Z</time>
      </trkpt>
      <trkpt lat="45.88482" lon="2.92604">
        <ele>875</ele>
        <time>2019-09-29T20:00:43Z</time>
      </trkpt>
      <trkpt lat="45.88567" lon="2.92505">
        <ele>866</ele>
        <time>2019-09-29T20:01:09Z</time>
      </trkpt>
      <trkpt lat="45.8856" lon="2.92454">
        <ele>867</ele>
        <time>2019-09-29T20:01:17Z</time>
      </trkpt>
      <trkpt lat="45.88491" lon="2.92326">
        <ele>870</ele>
        <time>2019-09-29T20:01:43Z</time>
      </trkpt>
      <trkpt lat="45.88555" lon="2.92291">
        <ele>869</ele>
        <time>2019-09-29T20:01:59Z</time>
      </trkpt>
      <trkpt lat="45.88652" lon="2.92288">
        <ele>870</ele>
        <time>2019-09-29T20:02:22Z</time>
      </trkpt>
      <trkpt lat="45.88722" lon="2.92273">
        <ele>871</ele>
        <time>2019-09-29T20:02:39Z</time>
      </trkpt>
      <trkpt lat="45.88846" lon="2.92227">
        <ele>869</ele>
        <time>2019-09-29T20:03:08Z</time>
      </trkpt>
      <trkpt lat="45.89004" lon="2.92194">
        <ele>858</ele>
        <time>2019-09-29T20:03:46Z</time>
      </trkpt>
      <trkpt lat="45.89134" lon="2.92158">
        <ele>850</ele>
        <time>2019-09-29T20:04:17Z</time>
      </trkpt>
      <trkpt lat="45.89123" lon="2.92091">
        <ele>848</ele>
        <time>2019-09-29T20:04:28Z</time>
      </trkpt>
      <trkpt lat="45.89091" lon="2.92048">
        <ele>848</ele>
        <time>2019-09-29T20:04:38Z</time>
      </trkpt>
      <trkpt lat="45.89071" lon="2.91982">
        <ele>848</ele>
        <time>2019-09-29T20:04:50Z</time>
      </trkpt>
      <trkpt lat="45.88933" lon="2.91563">
        <ele>849</ele>
        <time>2019-09-29T20:06:05Z</time>
      </trkpt>
      <trkpt lat="45.88842" lon="2.91535">
        <ele>853</ele>
        <time>2019-09-29T20:06:27Z</time>
      </trkpt>
      <trkpt lat="45.88766" lon="2.91466">
        <ele>854</ele>
        <time>2019-09-29T20:06:48Z</time>
      </trkpt>
      <trkpt lat="45.88746" lon="2.91443">
        <ele>855</ele>
        <time>2019-09-29T20:06:54Z</time>
      </trkpt>
      <trkpt lat="45.88734" lon="2.91377">
        <ele>855</ele>
        <time>2019-09-29T20:07:05Z</time>
      </trkpt>
      <trkpt lat="45.89016" lon="2.91344">
        <ele>848</ele>
        <time>2019-09-29T20:08:11Z</time>
      </trkpt>
      <trkpt lat="45.89073" lon="2.9128">
        <ele>847</ele>
        <time>2019-09-29T20:08:28Z</time>
      </trkpt>
      <trkpt lat="45.89135" lon="2.9128">
        <ele>847</ele>
        <time>2019-09-29T20:08:42Z</time>
      </trkpt>
      <trkpt lat="45.89283" lon="2.91392">
        <ele>845</ele>
        <time>2019-09-29T20:09:21Z</time>
      </trkpt>
      <trkpt lat="45.89329" lon="2.91316">
        <ele>844</ele>
        <time>2019-09-29T20:09:38Z</time>
      </trkpt>
      <trkpt lat="45.89334" lon="2.9116">
        <ele>843</ele>
        <time>2019-09-29T20:10:03Z</time>
      </trkpt>
      <trkpt lat="45.89301" lon="2.91055">
        <ele>844</ele>
        <time>2019-09-29T20:10:22Z</time>
      </trkpt>
      <trkpt lat="45.89278" lon="2.90987">
        <ele>844</ele>
        <time>2019-09-29T20:10:34Z</time>
      </trkpt>
      <trkpt lat="45.89233" lon="2.9093">
        <ele>844</ele>
        <time>2019-09-29T20:10:48Z</time>
      </trkpt>
      <trkpt lat="45.89196" lon="2.90803">
        <ele>842</ele>
        <time>2019-09-29T20:11:11Z</time>
      </trkpt>
      <trkpt lat="45.89187" lon="2.90703">
        <ele>837</ele>
        <time>2019-09-29T20:11:27Z</time>
      </trkpt>
      <trkpt lat="45.89178" lon="2.90611">
        <ele>835</ele>
        <time>2019-09-29T20:11:42Z</time>
      </trkpt>
      <trkpt lat="45.89159" lon="2.90553">
        <ele>833</ele>
        <time>2019-09-29T20:11:52Z</time>
      </trkpt>
      <trkpt lat="45.89153" lon="2.90499">
        <ele>832</ele>
        <time>2019-09-29T20:12:01Z</time>
      </trkpt>
      <trkpt lat="45.8907" lon="2.90384">
        <ele>829</ele>
        <time>2019-09-29T20:12:28Z</time>
      </trkpt>
      <trkpt lat="45.891" lon="2.90331">
        <ele>828</ele>
        <time>2019-09-29T20:12:39Z</time>
      </trkpt>
      <trkpt lat="45.89105" lon="2.903">
        <ele>828</ele>
        <time>2019-09-29T20:12:45Z</time>
      </trkpt>
      <trkpt lat="45.89109" lon="2.90183">
        <ele>830</ele>
        <time>2019-09-29T20:13:04Z</time>
      </trkpt>
      <trkpt lat="45.89064" lon="2.90106">
        <ele>829</ele>
        <time>2019-09-29T20:13:20Z</time>
      </trkpt>
      <trkpt lat="45.89068" lon="2.90058">
        <ele>829</ele>
        <time>2019-09-29T20:13:28Z</time>
      </trkpt>
      <trkpt lat="45.89096" lon="2.89948">
        <ele>828</ele>
        <time>2019-09-29T20:13:47Z</time>
      </trkpt>
      <trkpt lat="45.89111" lon="2.89902">
        <ele>826</ele>
        <time>2019-09-29T20:13:55Z</time>
      </trkpt>
      <trkpt lat="45.8916" lon="2.89828">
        <ele>819</ele>
        <time>2019-09-29T20:14:12Z</time>
      </trkpt>
      <trkpt lat="45.89166" lon="2.89698">
        <ele>818</ele>
        <time>2019-09-29T20:14:33Z</time>
      </trkpt>
      <trkpt lat="45.89226" lon="2.89665">
        <ele>815</ele>
        <time>2019-09-29T20:14:48Z</time>
      </trkpt>
      <trkpt lat="45.89294" lon="2.89601">
        <ele>812</ele>
        <time>2019-09-29T20:15:07Z</time>
      </trkpt>
      <trkpt lat="45.89301" lon="2.89746">
        <ele>811</ele>
        <time>2019-09-29T20:15:30Z</time>
      </trkpt>
      <trkpt lat="45.89388" lon="2.89836">
        <ele>817</ele>
        <time>2019-09-29T20:15:56Z</time>
      </trkpt>
      <trkpt lat="45.8945" lon="2.89907">
        <ele>823</ele>
        <time>2019-09-29T20:16:14Z</time>
      </trkpt>
      <trkpt lat="45.89487" lon="2.89971">
        <ele>827</ele>
        <time>2019-09-29T20:16:28Z</time>
      </trkpt>
      <trkpt lat="45.89528" lon="2.90099">
        <ele>834</ele>
        <time>2019-09-29T20:16:50Z</time>
      </trkpt>
      <trkpt lat="45.89613" lon="2.90119">
        <ele>831</ele>
        <time>2019-09-29T20:17:11Z</time>
      </trkpt>
      <trkpt lat="45.89658" lon="2.90147">
        <ele>829</ele>
        <time>2019-09-29T20:17:22Z</time>
      </trkpt>
      <trkpt lat="45.89677" lon="2.90201">
        <ele>829</ele>
        <time>2019-09-29T20:17:32Z</time>
      </trkpt>
      <trkpt lat="45.89672" lon="2.90262">
        <ele>831</ele>
        <time>2019-09-29T20:17:42Z</time>
      </trkpt>
      <trkpt lat="45.89725" lon="2.903">
        <ele>828</ele>
        <time>2019-09-29T20:17:56Z</time>
      </trkpt>
      <trkpt lat="45.89785" lon="2.90259">
        <ele>823</ele>
        <time>2019-09-29T20:18:11Z</time>
      </trkpt>
      <trkpt lat="45.89888" lon="2.90395">
        <ele>823</ele>
        <time>2019-09-29T20:18:44Z</time>
      </trkpt>
      <trkpt lat="45.89942" lon="2.90502">
        <ele>825</ele>
        <time>2019-09-29T20:19:05Z</time>
      </trkpt>
      <trkpt lat="45.90048" lon="2.90463">
        <ele>826</ele>
        <time>2019-09-29T20:19:31Z</time>
      </trkpt>
      <trkpt lat="45.90219" lon="2.90573">
        <ele>839</ele>
        <time>2019-09-29T20:20:15Z</time>
      </trkpt>
      <trkpt lat="45.90277" lon="2.90688">
        <ele>844</ele>
        <time>2019-09-29T20:20:38Z</time>
      </trkpt>
      <trkpt lat="45.90334" lon="2.90759">
        <ele>849</ele>
        <time>2019-09-29T20:20:55Z</time>
      </trkpt>
      <trkpt lat="45.90421" lon="2.9079">
        <ele>852</ele>
        <time>2019-09-29T20:21:16Z</time>
      </trkpt>
      <trkpt lat="45.90483" lon="2.90844">
        <ele>850</ele>
        <time>2019-09-29T20:21:33Z</time>
      </trkpt>
      <trkpt lat="45.90542" lon="2.90895">
        <ele>847</ele>
        <time>2019-09-29T20:21:49Z</time>
      </trkpt>
      <trkpt lat="45.90579" lon="2.90961">
        <ele>847</ele>
        <time>2019-09-29T20:22:03Z</time>
      </trkpt>
      <trkpt lat="45.90615" lon="2.91004">
        <ele>847</ele>
        <time>2019-09-29T20:22:14Z</time>
      </trkpt>
      <trkpt lat="45.90618" lon="2.9103">
        <ele>848</ele>
        <time>2019-09-29T20:22:18Z</time>
      </trkpt>
      <trkpt lat="45.90634" lon="2.91076">
        <ele>848</ele>
        <time>2019-09-29T20:22:27Z</time>
      </trkpt>
      <trkpt lat="45.90601" lon="2.91135">
        <ele>851</ele>
        <time>2019-09-29T20:22:39Z</time>
      </trkpt>
      <trkpt lat="45.90666" lon="2.91219">
        <ele>845</ele>
        <time>2019-09-29T20:22:59Z</time>
      </trkpt>
      <trkpt lat="45.90757" lon="2.91211">
        <ele>838</ele>
        <time>2019-09-29T20:23:21Z</time>
      </trkpt>
      <trkpt lat="45.90805" lon="2.9126">
        <ele>835</ele>
        <time>2019-09-29T20:23:34Z</time>
      </trkpt>
      <trkpt lat="45.90833" lon="2.91359">
        <ele>841</ele>
        <time>2019-09-29T20:23:52Z</time>
      </trkpt>
      <trkpt lat="45.90886" lon="2.91364">
        <ele>845</ele>
        <time>2019-09-29T20:24:04Z</time>
      </trkpt>
      <trkpt lat="45.90909" lon="2.9139">
        <ele>847</ele>
        <time>2019-09-29T20:24:11Z</time>
      </trkpt>
      <trkpt lat="45.90915" lon="2.91494">
        <ele>851</ele>
        <time>2019-09-29T20:24:28Z</time>
      </trkpt>
      <trkpt lat="45.90966" lon="2.9163">
        <ele>856</ele>
        <time>2019-09-29T20:24:53Z</time>
      </trkpt>
      <trkpt lat="45.91012" lon="2.91765">
        <ele>860</ele>
        <time>2019-09-29T20:25:17Z</time>
      </trkpt>
      <trkpt lat="45.91043" lon="2.91872">
        <ele>862</ele>
        <time>2019-09-29T20:25:36Z</time>
      </trkpt>
      <trkpt lat="45.91076" lon="2.92028">
        <ele>869</ele>
        <time>2019-09-29T20:26:03Z</time>
      </trkpt>
      <trkpt lat="45.91069" lon="2.92107">
        <ele>871</ele>
        <time>2019-09-29T20:26:16Z</time>
      </trkpt>
      <trkpt lat="45.91078" lon="2.92232">
        <ele>879</ele>
        <time>2019-09-29T20:26:36Z</time>
      </trkpt>
      <trkpt lat="45.91069" lon="2.9228">
        <ele>881</ele>
        <time>2019-09-29T20:26:44Z</time>
      </trkpt>
      <trkpt lat="45.91011" lon="2.92467">
        <ele>884</ele>
        <time>2019-09-29T20:27:18Z</time>
      </trkpt>
      <trkpt lat="45.91005" lon="2.92558">
        <ele>890</ele>
        <time>2019-09-29T20:27:32Z</time>
      </trkpt>
      <trkpt lat="45.91004" lon="2.92625">
        <ele>892</ele>
        <time>2019-09-29T20:27:43Z</time>
      </trkpt>
      <trkpt lat="45.90991" lon="2.92701">
        <ele>891</ele>
        <time>2019-09-29T20:27:56Z</time>
      </trkpt>
      <trkpt lat="45.91014" lon="2.92982">
        <ele>891</ele>
        <time>2019-09-29T20:28:42Z</time>
      </trkpt>
      <trkpt lat="45.91004" lon="2.93043">
        <ele>890</ele>
        <time>2019-09-29T20:28:52Z</time>
      </trkpt>
      <trkpt lat="45.90977" lon="2.93105">
        <ele>887</ele>
        <time>2019-09-29T20:29:04Z</time>
      </trkpt>
      <trkpt lat="45.90956" lon="2.93166">
        <ele>886</ele>
        <time>2019-09-29T20:29:15Z</time>
      </trkpt>
      <trkpt lat="45.9095" lon="2.93224">
        <ele>886</ele>
        <time>2019-09-29T20:29:25Z</time>
      </trkpt>
      <trkpt lat="45.91007" lon="2.9335">
        <ele>887</ele>
        <time>2019-09-29T20:29:49Z</time>
      </trkpt>
      <trkpt lat="45.9106" lon="2.93431">
        <ele>885</ele>
        <time>2019-09-29T20:30:07Z</time>
      </trkpt>
      <trkpt lat="45.91225" lon="2.93531">
        <ele>888</ele>
        <time>2019-09-29T20:30:49Z</time>
      </trkpt>
      <trkpt lat="45.91307" lon="2.93526">
        <ele>890</ele>
        <time>2019-09-29T20:31:08Z</time>
      </trkpt>
      <trkpt lat="45.91442" lon="2.93594">
        <ele>890</ele>
        <time>2019-09-29T20:31:41Z</time>
      </trkpt>
      <trkpt lat="45.91547" lon="2.93569">
        <ele>891</ele>
        <time>2019-09-29T20:32:06Z</time>
      </trkpt>
      <trkpt lat="45.91632" lon="2.936">
        <ele>889</ele>
        <time>2019-09-29T20:32:27Z</time>
      </trkpt>
      <trkpt lat="45.91694" lon="2.93602">
        <ele>889</ele>
        <time>2019-09-29T20:32:41Z</time>
      </trkpt>
      <trkpt lat="45.91755" lon="2.93569">
        <ele>892</ele>
        <time>2019-09-29T20:32:57Z</time>
      </trkpt>
      <trkpt lat="45.91806" lon="2.93658">
        <ele>887</ele>
        <time>2019-09-29T20:33:15Z</time>
      </trkpt>
      <trkpt lat="45.91834" lon="2.93773">
        <ele>881</ele>
        <time>2019-09-29T20:33:35Z</time>
      </trkpt>
      <trkpt lat="45.91859" lon="2.93819">
        <ele>880</ele>
        <time>2019-09-29T20:33:45Z</time>
      </trkpt>
      <trkpt lat="45.91966" lon="2.93888">
        <ele>880</ele>
        <time>2019-09-29T20:34:12Z</time>
      </trkpt>
      <trkpt lat="45.92198" lon="2.94023">
        <ele>879</ele>
        <time>2019-09-29T20:35:10Z</time>
      </trkpt>
      <trkpt lat="45.92344" lon="2.94079">
        <ele>879</ele>
        <time>2019-09-29T20:35:46Z</time>
      </trkpt>
      <trkpt lat="45.92498" lon="2.9411">
        <ele>870</ele>
        <time>2019-09-29T20:36:22Z</time>
      </trkpt>
      <trkpt lat="45.92589" lon="2.94148">
        <ele>866</ele>
        <time>2019-09-29T20:36:44Z</time>
      </trkpt>
      <trkpt lat="45.92571" lon="2.94324">
        <ele>868</ele>
        <time>2019-09-29T20:37:13Z</time>
      </trkpt>
      <trkpt lat="45.9252" lon="2.94421">
        <ele>867</ele>
        <time>2019-09-29T20:37:33Z</time>
      </trkpt>
      <trkpt lat="45.92495" lon="2.94457">
        <ele>867</ele>
        <time>2019-09-29T20:37:41Z</time>
      </trkpt>
      <trkpt lat="45.92378" lon="2.94572">
        <ele>863</ele>
        <time>2019-09-29T20:38:14Z</time>
      </trkpt>
      <trkpt lat="45.92269" lon="2.94666">
        <ele>859</ele>
        <time>2019-09-29T20:38:44Z</time>
      </trkpt>
      <trkpt lat="45.92143" lon="2.94801">
        <ele>849</ele>
        <time>2019-09-29T20:39:20Z</time>
      </trkpt>
      <trkpt lat="45.92047" lon="2.94878">
        <ele>846</ele>
        <time>2019-09-29T20:39:46Z</time>
      </trkpt>
      <trkpt lat="45.92015" lon="2.9497">
        <ele>844</ele>
        <time>2019-09-29T20:40:03Z</time>
      </trkpt>
      <trkpt lat="45.91971" lon="2.95164">
        <ele>845</ele>
        <time>2019-09-29T20:40:36Z</time>
      </trkpt>
      <trkpt lat="45.9195" lon="2.95294">
        <ele>848</ele>
        <time>2019-09-29T20:40:58Z</time>
      </trkpt>
      <trkpt lat="45.91881" lon="2.95536">
        <ele>849</ele>
        <time>2019-09-29T20:41:40Z</time>
      </trkpt>
      <trkpt lat="45.91769" lon="2.95644">
        <ele>843</ele>
        <time>2019-09-29T20:42:12Z</time>
      </trkpt>
      <trkpt lat="45.91707" lon="2.9573">
        <ele>838</ele>
        <time>2019-09-29T20:42:32Z</time>
      </trkpt>
      <trkpt lat="45.91671" lon="2.95753">
        <ele>836</ele>
        <time>2019-09-29T20:42:41Z</time>
      </trkpt>
      <trkpt lat="45.91646" lon="2.95753">
        <ele>835</ele>
        <time>2019-09-29T20:42:47Z</time>
      </trkpt>
      <trkpt lat="45.91597" lon="2.95832">
        <ele>836</ele>
        <time>2019-09-29T20:43:04Z</time>
      </trkpt>
      <trkpt lat="45.91584" lon="2.95896">
        <ele>838</ele>
        <time>2019-09-29T20:43:15Z</time>
      </trkpt>
      <trkpt lat="45.91579" lon="2.95965">
        <ele>839</ele>
        <time>2019-09-29T20:43:26Z</time>
      </trkpt>
      <trkpt lat="45.91563" lon="2.96042">
        <ele>839</ele>
        <time>2019-09-29T20:43:39Z</time>
      </trkpt>
      <trkpt lat="45.91561" lon="2.96128">
        <ele>836</ele>
        <time>2019-09-29T20:43:53Z</time>
      </trkpt>
      <trkpt lat="45.91545" lon="2.96187">
        <ele>830</ele>
        <time>2019-09-29T20:44:03Z</time>
      </trkpt>
      <trkpt lat="45.91433" lon="2.96299">
        <ele>817</ele>
        <time>2019-09-29T20:44:35Z</time>
      </trkpt>
      <trkpt lat="45.9138" lon="2.96373">
        <ele>814</ele>
        <time>2019-09-29T20:44:53Z</time>
      </trkpt>
      <trkpt lat="45.91451" lon="2.96419">
        <ele>812</ele>
        <time>2019-09-29T20:45:11Z</time>
      </trkpt>
      <trkpt lat="45.91495" lon="2.96626">
        <ele>809</ele>
        <time>2019-09-29T20:45:46Z</time>
      </trkpt>
      <trkpt lat="45.91579" lon="2.96715">
        <ele>801</ele>
        <time>2019-09-29T20:46:10Z</time>
      </trkpt>
      <trkpt lat="45.91621" lon="2.96807">
        <ele>792</ele>
        <time>2019-09-29T20:46:28Z</time>
      </trkpt>
      <trkpt lat="45.91625" lon="2.96996">
        <ele>786</ele>
        <time>2019-09-29T20:46:59Z</time>
      </trkpt>
      <trkpt lat="45.91623" lon="2.97098">
        <ele>785</ele>
        <time>2019-09-29T20:47:15Z</time>
      </trkpt>
      <trkpt lat="45.91659" lon="2.97256">
        <ele>772</ele>
        <time>2019-09-29T20:47:42Z</time>
      </trkpt>
      <trkpt lat="45.9165" lon="2.9742">
        <ele>772</ele>
        <time>2019-09-29T20:48:09Z</time>
      </trkpt>
      <trkpt lat="45.9163" lon="2.97532">
        <ele>773</ele>
        <time>2019-09-29T20:48:28Z</time>
      </trkpt>
      <trkpt lat="45.91554" lon="2.97552">
        <ele>776</ele>
        <time>2019-09-29T20:48:46Z</time>
      </trkpt>
      <trkpt lat="45.91485" lon="2.97552">
        <ele>779</ele>
        <time>2019-09-29T20:49:02Z</time>
      </trkpt>
      <trkpt lat="45.91423" lon="2.97593">
        <ele>778</ele>
        <time>2019-09-29T20:49:18Z</time>
      </trkpt>
      <trkpt lat="45.91453" lon="2.97672">
        <ele>768</ele>
        <time>2019-09-29T20:49:33Z</time>
      </trkpt>
      <trkpt lat="45.91408" lon="2.97736">
        <ele>768</ele>
        <time>2019-09-29T20:49:48Z</time>
      </trkpt>
      <trkpt lat="45.91328" lon="2.97756">
        <ele>767</ele>
        <time>2019-09-29T20:50:06Z</time>
      </trkpt>
      <trkpt lat="45.91286" lon="2.97764">
        <ele>765</ele>
        <time>2019-09-29T20:50:16Z</time>
      </trkpt>
      <trkpt lat="45.91201" lon="2.97731">
        <ele>764</ele>
        <time>2019-09-29T20:50:37Z</time>
      </trkpt>
      <trkpt lat="45.91174" lon="2.977">
        <ele>766</ele>
        <time>2019-09-29T20:50:45Z</time>
      </trkpt>
      <trkpt lat="45.91051" lon="2.9769">
        <ele>769</ele>
        <time>2019-09-29T20:51:14Z</time>
      </trkpt>
      <trkpt lat="45.91041" lon="2.9771">
        <ele>770</ele>
        <time>2019-09-29T20:51:18Z</time>
      </trkpt>
      <trkpt lat="45.91057" lon="2.97843">
        <ele>768</ele>
        <time>2019-09-29T20:51:40Z</time>
      </trkpt>
      <trkpt lat="45.91046" lon="2.97922">
        <ele>769</ele>
        <time>2019-09-29T20:51:53Z</time>
      </trkpt>
      <trkpt lat="45.91036" lon="2.98001">
        <ele>770</ele>
        <time>2019-09-29T20:52:06Z</time>
      </trkpt>
      <trkpt lat="45.91036" lon="2.98132">
        <ele>770</ele>
        <time>2019-09-29T20:52:27Z</time>
      </trkpt>
      <trkpt lat="45.9103" lon="2.98231">
        <ele>769</ele>
        <time>2019-09-29T20:52:43Z</time>
      </trkpt>
      <trkpt lat="45.91067" lon="2.98262">
        <ele>769</ele>
        <time>2019-09-29T20:52:53Z</time>
      </trkpt>
      <trkpt lat="45.91096" lon="2.98297">
        <ele>769</ele>
        <time>2019-09-29T20:53:02Z</time>
      </trkpt>
      <trkpt lat="45.91103" lon="2.98389">
        <ele>767</ele>
        <time>2019-09-29T20:53:17Z</time>
      </trkpt>
      <trkpt lat="45.91144" lon="2.98504">
        <ele>765</ele>
        <time>2019-09-29T20:53:38Z</time>
      </trkpt>
      <trkpt lat="45.91108" lon="2.98846">
        <ele>763</ele>
        <time>2019-09-29T20:54:34Z</time>
      </trkpt>
      <trkpt lat="45.91" lon="2.9906">
        <ele>759</ele>
        <time>2019-09-29T20:55:17Z</time>
      </trkpt>
      <trkpt lat="45.90917" lon="2.99316">
        <ele>746</ele>
        <time>2019-09-29T20:56:03Z</time>
      </trkpt>
      <trkpt lat="45.90883" lon="2.99372">
        <ele>743</ele>
        <time>2019-09-29T20:56:15Z</time>
      </trkpt>
      <trkpt lat="45.90851" lon="2.9952">
        <ele>741</ele>
        <time>2019-09-29T20:56:40Z</time>
      </trkpt>
      <trkpt lat="45.90803" lon="2.99609">
        <ele>737</ele>
        <time>2019-09-29T20:56:59Z</time>
      </trkpt>
      <trkpt lat="45.90796" lon="2.99744">
        <ele>733</ele>
        <time>2019-09-29T20:57:21Z</time>
      </trkpt>
      <trkpt lat="45.90846" lon="2.99956">
        <ele>726</ele>
        <time>2019-09-29T20:57:57Z</time>
      </trkpt>
      <trkpt lat="45.90846" lon="3.00183">
        <ele>725</ele>
        <time>2019-09-29T20:58:34Z</time>
      </trkpt>
      <trkpt lat="45.90767" lon="3.0013">
        <ele>721</ele>
        <time>2019-09-29T20:58:54Z</time>
      </trkpt>
      <trkpt lat="45.90741" lon="3.00186">
        <ele>719</ele>
        <time>2019-09-29T20:59:05Z</time>
      </trkpt>
      <trkpt lat="45.90721" lon="3.00375">
        <ele>714</ele>
        <time>2019-09-29T20:59:36Z</time>
      </trkpt>
      <trkpt lat="45.90721" lon="3.00482">
        <ele>713</ele>
        <time>2019-09-29T20:59:54Z</time>
      </trkpt>
      <trkpt lat="45.9073" lon="3.00604">
        <ele>712</ele>
        <time>2019-09-29T21:00:14Z</time>
      </trkpt>
      <trkpt lat="45.90663" lon="3.00589">
        <ele>709</ele>
        <time>2019-09-29T21:00:30Z</time>
      </trkpt>
      <trkpt lat="45.90611" lon="3.00584">
        <ele>706</ele>
        <time>2019-09-29T21:00:42Z</time>
      </trkpt>
      <trkpt lat="45.90538" lon="3.00594">
        <ele>706</ele>
        <time>2019-09-29T21:00:59Z</time>
      </trkpt>
      <trkpt lat="45.90501" lon="3.00602">
        <ele>708</ele>
        <time>2019-09-29T21:01:08Z</time>
      </trkpt>
      <trkpt lat="45.90442" lon="3.00676">
        <ele>713</ele>
        <time>2019-09-29T21:01:26Z</time>
      </trkpt>
      <trkpt lat="45.90395" lon="3.00696">
        <ele>717</ele>
        <time>2019-09-29T21:01:37Z</time>
      </trkpt>
      <trkpt lat="45.90329" lon="3.00783">
        <ele>723</ele>
        <time>2019-09-29T21:01:58Z</time>
      </trkpt>
      <trkpt lat="45.903" lon="3.00839">
        <ele>725</ele>
        <time>2019-09-29T21:02:10Z</time>
      </trkpt>
      <trkpt lat="45.90297" lon="3.00933">
        <ele>723</ele>
        <time>2019-09-29T21:02:25Z</time>
      </trkpt>
      <trkpt lat="45.90173" lon="3.01048">
        <ele>718</ele>
        <time>2019-09-29T21:02:59Z</time>
      </trkpt>
      <trkpt lat="45.90118" lon="3.01066">
        <ele>718</ele>
        <time>2019-09-29T21:03:12Z</time>
      </trkpt>
      <trkpt lat="45.90077" lon="3.01104">
        <ele>719</ele>
        <time>2019-09-29T21:03:24Z</time>
      </trkpt>
      <trkpt lat="45.90036" lon="3.01158">
        <ele>719</ele>
        <time>2019-09-29T21:03:37Z</time>
      </trkpt>
      <trkpt lat="45.90034" lon="3.01232">
        <ele>717</ele>
        <time>2019-09-29T21:03:49Z</time>
      </trkpt>
      <trkpt lat="45.90046" lon="3.01326">
        <ele>712</ele>
        <time>2019-09-29T21:04:04Z</time>
      </trkpt>
      <trkpt lat="45.90082" lon="3.01398">
        <ele>708</ele>
        <time>2019-09-29T21:04:19Z</time>
      </trkpt>
      <trkpt lat="45.90089" lon="3.01472">
        <ele>706</ele>
        <time>2019-09-29T21:04:31Z</time>
      </trkpt>
      <trkpt lat="45.90068" lon="3.01671">
        <ele>697</ele>
        <time>2019-09-29T21:05:04Z</time>
      </trkpt>
      <trkpt lat="45.90048" lon="3.01732">
        <ele>693</ele>
        <time>2019-09-29T21:05:15Z</time>
      </trkpt>
      <trkpt lat="45.90034" lon="3.01758">
        <ele>691</ele>
        <time>2019-09-29T21:05:20Z</time>
      </trkpt>
      <trkpt lat="45.89974" lon="3.01821">
        <ele>686</ele>
        <time>2019-09-29T21:05:37Z</time>
      </trkpt>
      <trkpt lat="45.89888" lon="3.0186">
        <ele>690</ele>
        <time>2019-09-29T21:05:58Z</time>
      </trkpt>
      <trkpt lat="45.89881" lon="3.02">
        <ele>692</ele>
        <time>2019-09-29T21:06:21Z</time>
      </trkpt>
      <trkpt lat="45.89872" lon="3.02061">
        <ele>691</ele>
        <time>2019-09-29T21:06:31Z</time>
      </trkpt>
      <trkpt lat="45.89785" lon="3.02061">
        <ele>695</ele>
        <time>2019-09-29T21:06:52Z</time>
      </trkpt>
      <trkpt lat="45.89736" lon="3.02054">
        <ele>697</ele>
        <time>2019-09-29T21:07:03Z</time>
      </trkpt>
      <trkpt lat="45.89702" lon="3.02036">
        <ele>698</ele>
        <time>2019-09-29T21:07:12Z</time>
      </trkpt>
      <trkpt lat="45.89674" lon="3.02059">
        <ele>698</ele>
        <time>2019-09-29T21:07:19Z</time>
      </trkpt>
      <trkpt lat="45.89645" lon="3.02135">
        <ele>703</ele>
        <time>2019-09-29T21:07:33Z</time>
      </trkpt>
      <trkpt lat="45.89656" lon="3.02196">
        <ele>701</ele>
        <time>2019-09-29T21:07:44Z</time>
      </trkpt>
      <trkpt lat="45.89636" lon="3.02222">
        <ele>701</ele>
        <time>2019-09-29T21:07:50Z</time>
      </trkpt>
      <trkpt lat="45.89599" lon="3.02225">
        <ele>703</ele>
        <time>2019-09-29T21:07:58Z</time>
      </trkpt>
      <trkpt lat="45.89563" lon="3.02242">
        <ele>707</ele>
        <time>2019-09-29T21:08:07Z</time>
      </trkpt>
      <trkpt lat="45.89526" lon="3.02322">
        <ele>712</ele>
        <time>2019-09-29T21:08:23Z</time>
      </trkpt>
      <trkpt lat="45.89547" lon="3.02439">
        <ele>699</ele>
        <time>2019-09-29T21:08:43Z</time>
      </trkpt>
      <trkpt lat="45.8956" lon="3.02503">
        <ele>693</ele>
        <time>2019-09-29T21:08:53Z</time>
      </trkpt>
      <trkpt lat="45.89542" lon="3.02559">
        <ele>697</ele>
        <time>2019-09-29T21:09:03Z</time>
      </trkpt>
      <trkpt lat="45.89539" lon="3.02633">
        <ele>694</ele>
        <time>2019-09-29T21:09:15Z</time>
      </trkpt>
      <trkpt lat="45.89581" lon="3.02717">
        <ele>680</ele>
        <time>2019-09-29T21:09:32Z</time>
      </trkpt>
      <trkpt lat="45.8953" lon="3.02763">
        <ele>681</ele>
        <time>2019-09-29T21:09:46Z</time>
      </trkpt>
      <trkpt lat="45.89475" lon="3.02878">
        <ele>670</ele>
        <time>2019-09-29T21:10:09Z</time>
      </trkpt>
      <trkpt lat="45.89457" lon="3.02962">
        <ele>664</ele>
        <time>2019-09-29T21:10:23Z</time>
      </trkpt>
      <trkpt lat="45.89448" lon="3.03">
        <ele>661</ele>
        <time>2019-09-29T21:10:30Z</time>
      </trkpt>
      <trkpt lat="45.89414" lon="3.03072">
        <ele>658</ele>
        <time>2019-09-29T21:10:44Z</time>
      </trkpt>
      <trkpt lat="45.89389" lon="3.03138">
        <ele>655</ele>
        <time>2019-09-29T21:10:56Z</time>
      </trkpt>
      <trkpt lat="45.89386" lon="3.03197">
        <ele>655</ele>
        <time>2019-09-29T21:11:06Z</time>
      </trkpt>
      <trkpt lat="45.89359" lon="3.03087">
        <ele>656</ele>
        <time>2019-09-29T21:11:25Z</time>
      </trkpt>
      <trkpt lat="45.8932" lon="3.02995">
        <ele>664</ele>
        <time>2019-09-29T21:11:42Z</time>
      </trkpt>
      <trkpt lat="45.89224" lon="3.02885">
        <ele>674</ele>
        <time>2019-09-29T21:12:11Z</time>
      </trkpt>
      <trkpt lat="45.89187" lon="3.02804">
        <ele>680</ele>
        <time>2019-09-29T21:12:27Z</time>
      </trkpt>
      <trkpt lat="45.89139" lon="3.02771">
        <ele>679</ele>
        <time>2019-09-29T21:12:39Z</time>
      </trkpt>
      <trkpt lat="45.89143" lon="3.02679">
        <ele>685</ele>
        <time>2019-09-29T21:12:54Z</time>
      </trkpt>
      <trkpt lat="45.89111" lon="3.0261">
        <ele>685</ele>
        <time>2019-09-29T21:13:08Z</time>
      </trkpt>
      <trkpt lat="45.8908" lon="3.02518">
        <ele>687</ele>
        <time>2019-09-29T21:13:24Z</time>
      </trkpt>
      <trkpt lat="45.88983" lon="3.02314">
        <ele>709</ele>
        <time>2019-09-29T21:14:04Z</time>
      </trkpt>
      <trkpt lat="45.88928" lon="3.02398">
        <ele>714</ele>
        <time>2019-09-29T21:14:23Z</time>
      </trkpt>
      <trkpt lat="45.88876" lon="3.02424">
        <ele>719</ele>
        <time>2019-09-29T21:14:36Z</time>
      </trkpt>
      <trkpt lat="45.88841" lon="3.02406">
        <ele>724</ele>
        <time>2019-09-29T21:14:45Z</time>
      </trkpt>
      <trkpt lat="45.88809" lon="3.02352">
        <ele>730</ele>
        <time>2019-09-29T21:14:56Z</time>
      </trkpt>
      <trkpt lat="45.88782" lon="3.02357">
        <ele>731</ele>
        <time>2019-09-29T21:15:03Z</time>
      </trkpt>
      <trkpt lat="45.88667" lon="3.02526">
        <ele>732</ele>
        <time>2019-09-29T21:15:41Z</time>
      </trkpt>
      <trkpt lat="45.88619" lon="3.02487">
        <ele>733</ele>
        <time>2019-09-29T21:15:54Z</time>
      </trkpt>
      <trkpt lat="45.88583" lon="3.0237">
        <ele>740</ele>
        <time>2019-09-29T21:16:15Z</time>
      </trkpt>
      <trkpt lat="45.88421" lon="3.02365">
        <ele>737</ele>
        <time>2019-09-29T21:16:52Z</time>
      </trkpt>
      <trkpt lat="45.88388" lon="3.02403">
        <ele>732</ele>
        <time>2019-09-29T21:17:02Z</time>
      </trkpt>
      <trkpt lat="45.88294" lon="3.02447">
        <ele>729</ele>
        <time>2019-09-29T21:17:25Z</time>
      </trkpt>
      <trkpt lat="45.8823" lon="3.02577">
        <ele>725</ele>
        <time>2019-09-29T21:17:51Z</time>
      </trkpt>
      <trkpt lat="45.88306" lon="3.02714">
        <ele>706</ele>
        <time>2019-09-29T21:18:20Z</time>
      </trkpt>
      <trkpt lat="45.88297" lon="3.02748">
        <ele>703</ele>
        <time>2019-09-29T21:18:26Z</time>
      </trkpt>
      <trkpt lat="45.88265" lon="3.0276">
        <ele>702</ele>
        <time>2019-09-29T21:18:33Z</time>
      </trkpt>
      <trkpt lat="45.88222" lon="3.02758">
        <ele>700</ele>
        <time>2019-09-29T21:18:43Z</time>
      </trkpt>
      <trkpt lat="45.8816" lon="3.02786">
        <ele>688</ele>
        <time>2019-09-29T21:18:59Z</time>
      </trkpt>
      <trkpt lat="45.88119" lon="3.02806">
        <ele>682</ele>
        <time>2019-09-29T21:19:09Z</time>
      </trkpt>
      <trkpt lat="45.88141" lon="3.02949">
        <ele>667</ele>
        <time>2019-09-29T21:19:33Z</time>
      </trkpt>
      <trkpt lat="45.88018" lon="3.02809">
        <ele>673</ele>
        <time>2019-09-29T21:20:09Z</time>
      </trkpt>
      <trkpt lat="45.87965" lon="3.02794">
        <ele>667</ele>
        <time>2019-09-29T21:20:22Z</time>
      </trkpt>
      <trkpt lat="45.8773" lon="3.02753">
        <ele>625</ele>
        <time>2019-09-29T21:21:17Z</time>
      </trkpt>
      <trkpt lat="45.87606" lon="3.02758">
        <ele>613</ele>
        <time>2019-09-29T21:21:46Z</time>
      </trkpt>
      <trkpt lat="45.87528" lon="3.0273">
        <ele>601</ele>
        <time>2019-09-29T21:22:05Z</time>
      </trkpt>
      <trkpt lat="45.87496" lon="3.02707">
        <ele>598</ele>
        <time>2019-09-29T21:22:13Z</time>
      </trkpt>
      <trkpt lat="45.87546" lon="3.02684">
        <ele>600</ele>
        <time>2019-09-29T21:22:25Z</time>
      </trkpt>
      <trkpt lat="45.8759" lon="3.02605">
        <ele>601</ele>
        <time>2019-09-29T21:22:42Z</time>
      </trkpt>
      <trkpt lat="45.8762" lon="3.02521">
        <ele>607</ele>
        <time>2019-09-29T21:22:57Z</time>
      </trkpt>
      <trkpt lat="45.87622" lon="3.02396">
        <ele>609</ele>
        <time>2019-09-29T21:23:18Z</time>
      </trkpt>
      <trkpt lat="45.87647" lon="3.02299">
        <ele>610</ele>
        <time>2019-09-29T21:23:34Z</time>
      </trkpt>
      <trkpt lat="45.87697" lon="3.02222">
        <ele>610</ele>
        <time>2019-09-29T21:23:52Z</time>
      </trkpt>
      <trkpt lat="45.87762" lon="3.02179">
        <ele>611</ele>
        <time>2019-09-29T21:24:08Z</time>
      </trkpt>
      <trkpt lat="45.87787" lon="3.0211">
        <ele>611</ele>
        <time>2019-09-29T21:24:21Z</time>
      </trkpt>
      <trkpt lat="45.87768" lon="3.02025">
        <ele>618</ele>
        <time>2019-09-29T21:24:35Z</time>
      </trkpt>
      <trkpt lat="45.87684" lon="3.01913">
        <ele>620</ele>
        <time>2019-09-29T21:25:02Z</time>
      </trkpt>
      <trkpt lat="45.87656" lon="3.01883">
        <ele>619</ele>
        <time>2019-09-29T21:25:10Z</time>
      </trkpt>
      <trkpt lat="45.87602" lon="3.01867">
        <ele>629</ele>
        <time>2019-09-29T21:25:23Z</time>
      </trkpt>
      <trkpt lat="45.87508" lon="3.01954">
        <ele>635</ele>
        <time>2019-09-29T21:25:49Z</time>
      </trkpt>
      <trkpt lat="45.87457" lon="3.01992">
        <ele>629</ele>
        <time>2019-09-29T21:26:03Z</time>
      </trkpt>
      <trkpt lat="45.87418" lon="3.01982">
        <ele>636</ele>
        <time>2019-09-29T21:26:12Z</time>
      </trkpt>
      <trkpt lat="45.87217" lon="3.0187">
        <ele>641</ele>
        <time>2019-09-29T21:27:02Z</time>
      </trkpt>
      <trkpt lat="45.87174" lon="3.01775">
        <ele>645</ele>
        <time>2019-09-29T21:27:21Z</time>
      </trkpt>
      <trkpt lat="45.87148" lon="3.01722">
        <ele>647</ele>
        <time>2019-09-29T21:27:31Z</time>
      </trkpt>
      <trkpt lat="45.87153" lon="3.01696">
        <ele>650</ele>
        <time>2019-09-29T21:27:36Z</time>
      </trkpt>
      <trkpt lat="45.87158" lon="3.01638">
        <ele>654</ele>
        <time>2019-09-29T21:27:45Z</time>
      </trkpt>
      <trkpt lat="45.87215" lon="3.01597">
        <ele>657</ele>
        <time>2019-09-29T21:28:00Z</time>
      </trkpt>
      <trkpt lat="45.8724" lon="3.01528">
        <ele>660</ele>
        <time>2019-09-29T21:28:13Z</time>
      </trkpt>
      <trkpt lat="45.87245" lon="3.01413">
        <ele>661</ele>
        <time>2019-09-29T21:28:31Z</time>
      </trkpt>
      <trkpt lat="45.87222" lon="3.01331">
        <ele>663</ele>
        <time>2019-09-29T21:28:46Z</time>
      </trkpt>
      <trkpt lat="45.8721" lon="3.0126">
        <ele>666</ele>
        <time>2019-09-29T21:28:58Z</time>
      </trkpt>
      <trkpt lat="45.87192" lon="3.01176">
        <ele>669</ele>
        <time>2019-09-29T21:29:12Z</time>
      </trkpt>
      <trkpt lat="45.87281" lon="3.01135">
        <ele>674</ele>
        <time>2019-09-29T21:29:34Z</time>
      </trkpt>
      <trkpt lat="45.87345" lon="3.01069">
        <ele>682</ele>
        <time>2019-09-29T21:29:52Z</time>
      </trkpt>
      <trkpt lat="45.87432" lon="3.01041">
        <ele>687</ele>
        <time>2019-09-29T21:30:13Z</time>
      </trkpt>
      <trkpt lat="45.87428" lon="3.01002">
        <ele>685</ele>
        <time>2019-09-29T21:30:19Z</time>
      </trkpt>
      <trkpt lat="45.87419" lon="3.00923">
        <ele>687</ele>
        <time>2019-09-29T21:30:32Z</time>
      </trkpt>
      <trkpt lat="45.87453" lon="3.00693">
        <ele>702</ele>
        <time>2019-09-29T21:31:11Z</time>
      </trkpt>
      <trkpt lat="45.87462" lon="3.00566">
        <ele>705</ele>
        <time>2019-09-29T21:31:31Z</time>
      </trkpt>
      <trkpt lat="45.87473" lon="3.00408">
        <ele>711</ele>
        <time>2019-09-29T21:31:57Z</time>
      </trkpt>
      <trkpt lat="45.87475" lon="3.00224">
        <ele>723</ele>
        <time>2019-09-29T21:32:27Z</time>
      </trkpt>
      <trkpt lat="45.87521" lon="3.00096">
        <ele>726</ele>
        <time>2019-09-29T21:32:51Z</time>
      </trkpt>
      <trkpt lat="45.87524" lon="2.99964">
        <ele>736</ele>
        <time>2019-09-29T21:33:12Z</time>
      </trkpt>
      <trkpt lat="45.87585" lon="2.99961">
        <ele>740</ele>
        <time>2019-09-29T21:33:26Z</time>
      </trkpt>
      <trkpt lat="45.87539" lon="2.99902">
        <ele>742</ele>
        <time>2019-09-29T21:33:41Z</time>
      </trkpt>
      <trkpt lat="45.87565" lon="2.99874">
        <ele>745</ele>
        <time>2019-09-29T21:33:48Z</time>
      </trkpt>
      <trkpt lat="45.87608" lon="2.99737">
        <ele>750</ele>
        <time>2019-09-29T21:34:13Z</time>
      </trkpt>
      <trkpt lat="45.87611" lon="2.99604">
        <ele>756</ele>
        <time>2019-09-29T21:34:34Z</time>
      </trkpt>
      <trkpt lat="45.8762" lon="2.99446">
        <ele>761</ele>
        <time>2019-09-29T21:35:00Z</time>
      </trkpt>
      <trkpt lat="45.87709" lon="2.99395">
        <ele>755</ele>
        <time>2019-09-29T21:35:23Z</time>
      </trkpt>
      <trkpt lat="45.87839" lon="2.99344">
        <ele>760</ele>
        <time>2019-09-29T21:35:54Z</time>
      </trkpt>
    </trkseg>
  </trk>
</gpx>